Time,TemperatureF,DewpointF,PressureIn,WindDirection,WindDirectionDegrees,WindSpeedMPH,WindSpeedGustMPH,Humidity,HourlyPrecipIn,Conditions,Clouds,dailyrainin,SoftwareType,DateUTC
2013-01-20 00:03:00,29.3,23.0,30.27,SSW,193,0.0,0.0,77,0.00,,,0.00,WUHU216WMR968SP,2013-01-20 08:03:00,
2013-01-20 00:08:00,29.3,23.0,30.27,SSW,193,0.0,0.0,77,0.00,,,0.00,WUHU216WMR968SP,2013-01-20 08:08:00,
2013-01-20 00:13:00,29.3,23.0,30.27,SSW,193,0.0,0.0,77,0.00,,,0.00,WUHU216WMR968SP,2013-01-20 08:13:00,
2013-01-20 00:18:00,29.3,23.0,30.27,SSW,194,0.0,0.0,77,0.00,,,0.00,WUHU216WMR968SP,2013-01-20 08:18:00,
2013-01-20 00:23:00,29.3,23.0,30.27,SSW,192,0.0,0.0,77,0.00,,,0.00,WUHU216WMR968SP,2013-01-20 08:23:00,
2013-01-20 00:28:00,29.5,23.2,30.27,SSW,192,0.0,0.0,77,0.00,,,0.00,WUHU216WMR968SP,2013-01-20 08:28:00,
2013-01-20 00:33:00,29.3,23.0,30.27,South,176,0.0,3.1,77,0.00,,,0.00,WUHU216WMR968SP,2013-01-20 08:33:00,
2013-01-20 00:38:00,29.3,23.0,30.27,South,176,0.0,3.1,77,0.00,,,0.00,WUHU216WMR968SP,2013-01-20 08:38:00,
2013-01-20 00:43:00,29.3,23.0,30.27,South,176,0.0,2.7,77,0.00,,,0.00,WUHU216WMR968SP,2013-01-20 08:43:00,
2013-01-20 00:48:00,29.1,22.8,30.27,South,175,0.0,3.6,77,0.00,,,0.00,WUHU216WMR968SP,2013-01-20 08:48:00,
2013-01-20 00:53:00,29.3,23.0,30.27,SE,135,2.2,3.6,77,0.00,,,0.00,WUHU216WMR968SP,2013-01-20 08:53:00,
2013-01-20 00:58:00,29.1,22.8,30.27,ESE,123,0.0,2.7,77,0.00,,,0.00,WUHU216WMR968SP,2013-01-20 08:58:00,
2013-01-20 01:03:00,29.1,22.8,30.27,ESE,123,0.0,2.2,77,0.00,,,0.00,WUHU216WMR968SP,2013-01-20 09:03:00,
2013-01-20 01:08:00,29.1,22.8,30.27,ESE,123,0.0,0.0,77,0.00,,,0.00,WUHU216WMR968SP,2013-01-20 09:08:00,
2013-01-20 01:13:00,29.1,22.8,30.27,ESE,123,0.0,0.0,77,0.00,,,0.00,WUHU216WMR968SP,2013-01-20 09:13:00,
2013-01-20 01:18:00,28.9,22.6,30.27,ESE,123,0.0,0.0,77,0.00,,,0.00,WUHU216WMR968SP,2013-01-20 09:18:00,
2013-01-20 01:23:00,28.9,22.6,30.27,ESE,123,0.0,0.0,77,0.00,,,0.00,WUHU216WMR968SP,2013-01-20 09:23:00,
2013-01-20 01:28:00,28.8,22.5,30.27,ESE,123,0.0,3.1,77,0.00,,,0.00,WUHU216WMR968SP,2013-01-20 09:28:00,
2013-01-20 01:33:00,28.8,22.5,30.27,ESE,123,0.0,3.1,77,0.00,,,0.00,WUHU216WMR968SP,2013-01-20 09:33:00,
2013-01-20 01:38:00,28.8,22.5,30.27,ESE,123,0.0,0.0,77,0.00,,,0.00,WUHU216WMR968SP,2013-01-20 09:38:00,
2013-01-20 01:43:00,28.8,22.5,30.27,ESE,123,0.0,0.0,77,0.00,,,0.00,WUHU216WMR968SP,2013-01-20 09:43:00,
2013-01-20 01:48:00,28.6,22.3,30.27,ESE,123,0.0,0.0,77,0.00,,,0.00,WUHU216WMR968SP,2013-01-20 09:48:00,
2013-01-20 02:35:00,28.9,22.6,30.27,ESE,123,0.0,0.0,77,0.00,,,0.00,WUHU216WMR968SP,2013-01-20 10:35:00,
2013-01-20 02:40:00,29.3,23.0,30.27,ESE,123,0.0,0.0,77,0.00,,,0.00,WUHU216WMR968SP,2013-01-20 10:40:00,
2013-01-20 02:45:00,29.5,23.2,30.27,SSW,204,0.0,3.6,77,0.00,,,0.00,WUHU216WMR968SP,2013-01-20 10:45:00,
2013-01-20 02:50:00,29.3,23.0,30.27,SSW,204,2.7,3.6,77,0.00,,,0.00,WUHU216WMR968SP,2013-01-20 10:50:00,
2013-01-20 02:55:00,29.3,23.0,30.27,SSW,204,0.0,3.1,77,0.00,,,0.00,WUHU216WMR968SP,2013-01-20 10:55:00,
2013-01-20 03:00:00,29.3,23.0,30.27,SSW,204,0.0,2.7,77,0.00,,,0.00,WUHU216WMR968SP,2013-01-20 11:00:00,
2013-01-20 03:05:00,29.1,22.8,30.27,SSW,204,0.0,0.0,77,0.00,,,0.00,WUHU216WMR968SP,2013-01-20 11:05:00,
2013-01-20 03:10:00,28.9,22.6,30.27,SSW,204,0.0,0.0,77,0.00,,,0.00,WUHU216WMR968SP,2013-01-20 11:10:00,
2013-01-20 03:15:00,28.8,22.5,30.27,SSW,204,0.0,0.0,77,0.00,,,0.00,WUHU216WMR968SP,2013-01-20 11:15:00,
2013-01-20 03:20:00,28.6,22.3,30.27,SSW,204,0.0,0.0,77,0.00,,,0.00,WUHU216WMR968SP,2013-01-20 11:20:00,
2013-01-20 03:25:00,28.6,22.3,30.27,SSW,204,0.0,0.0,77,0.00,,,0.00,WUHU216WMR968SP,2013-01-20 11:25:00,
2013-01-20 03:30:00,28.2,21.9,30.27,SSW,204,0.0,0.0,77,0.00,,,0.00,WUHU216WMR968SP,2013-01-20 11:30:00,
2013-01-20 03:35:00,27.9,21.6,30.27,SSW,204,0.0,0.0,77,0.00,,,0.00,WUHU216WMR968SP,2013-01-20 11:35:00,
2013-01-20 03:40:00,27.9,21.6,30.27,SSW,204,0.0,0.0,77,0.00,,,0.00,WUHU216WMR968SP,2013-01-20 11:40:00,
2013-01-20 03:45:00,27.9,21.6,30.27,SSW,204,0.0,0.0,77,0.00,,,0.00,WUHU216WMR968SP,2013-01-20 11:45:00,
2013-01-20 03:50:00,27.9,21.6,30.27,SSW,204,0.0,0.0,77,0.00,,,0.00,WUHU216WMR968SP,2013-01-20 11:50:00,
2013-01-20 03:55:00,27.9,21.6,30.27,SSW,204,0.0,0.0,77,0.00,,,0.00,WUHU216WMR968SP,2013-01-20 11:55:00,
2013-01-20 04:00:00,28.0,21.7,30.27,SSW,204,0.0,0.0,77,0.00,,,0.00,WUHU216WMR968SP,2013-01-20 12:00:00,
2013-01-20 04:05:00,28.0,21.7,30.27,SSW,204,0.0,0.0,77,0.00,,,0.00,WUHU216WMR968SP,2013-01-20 12:05:00,
2013-01-20 04:10:00,28.2,21.9,30.27,SSW,204,0.0,0.0,77,0.00,,,0.00,WUHU216WMR968SP,2013-01-20 12:10:00,
2013-01-20 04:15:00,28.2,21.9,30.27,SSW,204,0.0,0.0,77,0.00,,,0.00,WUHU216WMR968SP,2013-01-20 12:15:00,
2013-01-20 04:20:00,28.2,21.9,30.27,SE,137,0.0,3.1,77,0.00,,,0.00,WUHU216WMR968SP,2013-01-20 12:20:00,
2013-01-20 04:25:00,28.0,21.7,30.27,SE,137,0.0,3.1,77,0.00,,,0.00,WUHU216WMR968SP,2013-01-20 12:25:00,
2013-01-20 04:30:00,28.0,21.7,30.27,SE,137,0.0,0.0,77,0.00,,,0.00,WUHU216WMR968SP,2013-01-20 12:30:00,
2013-01-20 04:35:00,28.2,21.9,30.27,ESE,120,0.0,3.6,77,0.00,,,0.00,WUHU216WMR968SP,2013-01-20 12:35:00,
2013-01-20 04:40:00,28.0,21.7,30.27,ESE,120,2.7,3.6,77,0.00,,,0.00,WUHU216WMR968SP,2013-01-20 12:40:00,
2013-01-20 04:45:00,27.9,21.6,30.27,ESE,120,0.0,3.6,77,0.00,,,0.00,WUHU216WMR968SP,2013-01-20 12:45:00,
2013-01-20 04:50:00,28.0,21.7,30.27,ESE,120,0.0,3.1,77,0.00,,,0.00,WUHU216WMR968SP,2013-01-20 12:50:00,
2013-01-20 04:55:00,28.0,21.7,30.27,ESE,120,0.0,0.0,77,0.00,,,0.00,WUHU216WMR968SP,2013-01-20 12:55:00,
2013-01-20 05:00:00,28.0,21.7,30.27,ESE,120,0.0,0.0,77,0.00,,,0.00,WUHU216WMR968SP,2013-01-20 13:00:00,
2013-01-20 05:05:00,28.0,21.7,30.27,ESE,120,0.0,0.0,77,0.00,,,0.00,WUHU216WMR968SP,2013-01-20 13:05:00,
2013-01-20 05:10:00,28.0,21.7,30.27,ESE,120,0.0,0.0,77,0.00,,,0.00,WUHU216WMR968SP,2013-01-20 13:10:00,
2013-01-20 05:15:00,28.2,21.9,30.27,ESE,120,0.0,0.0,77,0.00,,,0.00,WUHU216WMR968SP,2013-01-20 13:15:00,
2013-01-20 05:20:00,28.2,21.9,30.27,ESE,120,0.0,0.0,77,0.00,,,0.00,WUHU216WMR968SP,2013-01-20 13:20:00,
2013-01-20 05:25:00,28.2,21.9,30.27,ESE,120,0.0,0.0,77,0.00,,,0.00,WUHU216WMR968SP,2013-01-20 13:25:00,
2013-01-20 05:30:00,28.4,22.1,30.27,ESE,120,0.0,0.0,77,0.00,,,0.00,WUHU216WMR968SP,2013-01-20 13:30:00,
2013-01-20 05:35:00,28.4,22.1,30.27,ESE,120,0.0,0.0,77,0.00,,,0.00,WUHU216WMR968SP,2013-01-20 13:35:00,
2013-01-20 05:40:00,28.4,22.1,30.27,ESE,120,0.0,0.0,77,0.00,,,0.00,WUHU216WMR968SP,2013-01-20 13:40:00,
2013-01-20 05:45:00,28.4,22.1,30.27,ESE,120,0.0,0.0,77,0.00,,,0.00,WUHU216WMR968SP,2013-01-20 13:45:00,
2013-01-20 05:50:00,28.2,21.9,30.27,ESE,120,0.0,0.0,77,0.00,,,0.00,WUHU216WMR968SP,2013-01-20 13:50:00,
2013-01-20 05:55:00,28.2,21.9,30.27,ESE,120,0.0,0.0,77,0.00,,,0.00,WUHU216WMR968SP,2013-01-20 13:55:00,
2013-01-20 06:00:00,28.4,22.1,30.27,ESE,120,0.0,0.0,77,0.00,,,0.00,WUHU216WMR968SP,2013-01-20 14:00:00,
2013-01-20 06:05:00,28.4,22.1,30.27,ESE,120,0.0,0.0,77,0.00,,,0.00,WUHU216WMR968SP,2013-01-20 14:05:00,
2013-01-20 06:10:00,28.4,22.1,30.27,ESE,120,0.0,0.0,77,0.00,,,0.00,WUHU216WMR968SP,2013-01-20 14:10:00,
2013-01-20 06:15:00,28.4,22.1,30.24,ESE,120,0.0,0.0,77,0.00,,,0.00,WUHU216WMR968SP,2013-01-20 14:15:00,
2013-01-20 06:20:00,28.6,22.3,30.24,ESE,120,0.0,0.0,77,0.00,,,0.00,WUHU216WMR968SP,2013-01-20 14:20:00,
2013-01-20 06:25:00,28.6,22.3,30.24,ESE,120,0.0,0.0,77,0.00,,,0.00,WUHU216WMR968SP,2013-01-20 14:25:00,
2013-01-20 06:30:00,28.4,22.1,30.27,ESE,120,0.0,0.0,77,0.00,,,0.00,WUHU216WMR968SP,2013-01-20 14:30:00,
2013-01-20 06:35:00,28.2,21.9,30.27,ESE,120,0.0,0.0,77,0.00,,,0.00,WUHU216WMR968SP,2013-01-20 14:35:00,
2013-01-20 06:40:00,28.0,21.7,30.27,ESE,120,0.0,0.0,77,0.00,,,0.00,WUHU216WMR968SP,2013-01-20 14:40:00,
2013-01-20 06:45:00,28.0,21.7,30.27,ESE,120,0.0,0.0,77,0.00,,,0.00,WUHU216WMR968SP,2013-01-20 14:45:00,
2013-01-20 06:50:00,28.0,21.7,30.27,ESE,120,0.0,0.0,77,0.00,,,0.00,WUHU216WMR968SP,2013-01-20 14:50:00,
2013-01-20 06:55:00,28.0,21.7,30.27,ESE,120,0.0,0.0,77,0.00,,,0.00,WUHU216WMR968SP,2013-01-20 14:55:00,
2013-01-20 07:00:00,28.0,21.7,30.27,ESE,120,0.0,0.0,77,0.00,,,0.00,WUHU216WMR968SP,2013-01-20 15:00:00,
2013-01-20 07:05:00,28.0,21.7,30.24,ESE,120,0.0,0.0,77,0.00,,,0.00,WUHU216WMR968SP,2013-01-20 15:05:00,
2013-01-20 07:10:00,27.9,21.6,30.24,ESE,120,0.0,0.0,77,0.00,,,0.00,WUHU216WMR968SP,2013-01-20 15:10:00,
2013-01-20 07:15:00,27.9,21.6,30.27,ESE,120,0.0,0.0,77,0.00,,,0.00,WUHU216WMR968SP,2013-01-20 15:15:00,
2013-01-20 07:20:00,27.7,21.5,30.27,ESE,120,0.0,0.0,77,0.00,,,0.00,WUHU216WMR968SP,2013-01-20 15:20:00,
2013-01-20 07:25:00,27.7,21.5,30.27,ESE,120,0.0,2.7,77,0.00,,,0.00,WUHU216WMR968SP,2013-01-20 15:25:00,
2013-01-20 07:30:00,27.5,21.3,30.27,ESE,120,0.0,2.7,77,0.00,,,0.00,WUHU216WMR968SP,2013-01-20 15:30:00,
2013-01-20 07:35:00,27.5,21.3,30.27,ESE,120,0.0,0.0,77,0.00,,,0.00,WUHU216WMR968SP,2013-01-20 15:35:00,
2013-01-20 07:40:00,27.5,21.3,30.27,ESE,120,0.0,0.0,77,0.00,,,0.00,WUHU216WMR968SP,2013-01-20 15:40:00,
2013-01-20 07:45:00,27.5,21.3,30.27,ESE,120,0.0,0.0,77,0.00,,,0.00,WUHU216WMR968SP,2013-01-20 15:45:00,
2013-01-20 07:50:00,27.5,21.3,30.27,ESE,120,0.0,3.1,77,0.00,,,0.00,WUHU216WMR968SP,2013-01-20 15:50:00,
2013-01-20 07:55:00,27.5,21.3,30.27,ESE,120,0.0,3.1,77,0.00,,,0.00,WUHU216WMR968SP,2013-01-20 15:55:00,
2013-01-20 08:00:00,27.7,21.5,30.27,ESE,120,0.0,0.0,77,0.00,,,0.00,WUHU216WMR968SP,2013-01-20 16:00:00,
2013-01-20 08:05:00,27.7,21.5,30.27,ESE,120,0.0,0.0,77,0.00,,,0.00,WUHU216WMR968SP,2013-01-20 16:05:00,
2013-01-20 08:10:00,27.7,21.5,30.27,ESE,120,0.0,0.0,77,0.00,,,0.00,WUHU216WMR968SP,2013-01-20 16:10:00,
2013-01-20 08:15:00,27.7,21.5,30.27,ESE,120,0.0,0.0,77,0.00,,,0.00,WUHU216WMR968SP,2013-01-20 16:15:00,
2013-01-20 08:20:00,27.7,21.5,30.27,ESE,121,0.0,0.0,77,0.00,,,0.00,WUHU216WMR968SP,2013-01-20 16:20:00,
2013-01-20 08:25:00,27.7,21.5,30.27,ESE,121,0.0,0.0,77,0.00,,,0.00,WUHU216WMR968SP,2013-01-20 16:25:00,
2013-01-20 08:30:00,27.7,21.5,30.27,ESE,120,0.0,0.0,77,0.00,,,0.00,WUHU216WMR968SP,2013-01-20 16:30:00,
2013-01-20 08:35:00,27.9,21.6,30.27,ESE,121,0.0,0.0,77,0.00,,,0.00,WUHU216WMR968SP,2013-01-20 16:35:00,
2013-01-20 08:40:00,27.9,21.6,30.27,ESE,120,0.0,3.1,77,0.00,,,0.00,WUHU216WMR968SP,2013-01-20 16:40:00,
2013-01-20 08:45:00,27.9,21.6,30.27,ESE,120,2.7,3.1,77,0.00,,,0.00,WUHU216WMR968SP,2013-01-20 16:45:00,
2013-01-20 08:50:00,28.0,21.7,30.27,ESE,120,0.0,3.1,77,0.00,,,0.00,WUHU216WMR968SP,2013-01-20 16:50:00,
2013-01-20 08:55:00,28.0,21.7,30.27,ESE,120,0.0,3.1,77,0.00,,,0.00,WUHU216WMR968SP,2013-01-20 16:55:00,
2013-01-20 09:00:00,28.0,21.7,30.27,ESE,120,0.0,0.0,77,0.00,,,0.00,WUHU216WMR968SP,2013-01-20 17:00:00,
2013-01-20 09:05:00,27.9,21.6,30.27,ESE,120,0.0,0.0,77,0.00,,,0.00,WUHU216WMR968SP,2013-01-20 17:05:00,
2013-01-20 09:10:00,28.0,21.7,30.27,ESE,121,0.0,0.0,77,0.00,,,0.00,WUHU216WMR968SP,2013-01-20 17:10:00,
2013-01-20 09:15:00,28.2,21.9,30.27,ESE,120,0.0,0.0,77,0.00,,,0.00,WUHU216WMR968SP,2013-01-20 17:15:00,
2013-01-20 09:20:00,28.4,22.1,30.27,ESE,120,0.0,0.0,77,0.00,,,0.00,WUHU216WMR968SP,2013-01-20 17:20:00,
2013-01-20 09:25:00,28.4,22.1,30.27,ESE,120,0.0,0.0,77,0.00,,,0.00,WUHU216WMR968SP,2013-01-20 17:25:00,
2013-01-20 09:30:00,28.6,22.3,30.27,ESE,120,0.0,0.0,77,0.00,,,0.00,WUHU216WMR968SP,2013-01-20 17:30:00,
2013-01-20 09:35:00,28.6,22.3,30.27,ESE,120,0.0,0.0,77,0.00,,,0.00,WUHU216WMR968SP,2013-01-20 17:35:00,
2013-01-20 09:40:00,28.6,22.3,30.27,ESE,120,0.0,0.0,77,0.00,,,0.00,WUHU216WMR968SP,2013-01-20 17:40:00,
2013-01-20 09:45:00,28.6,22.3,30.27,ESE,120,0.0,0.0,77,0.00,,,0.00,WUHU216WMR968SP,2013-01-20 17:45:00,
2013-01-20 09:50:00,28.8,22.5,30.27,ESE,120,0.0,0.0,77,0.00,,,0.00,WUHU216WMR968SP,2013-01-20 17:50:00,
2013-01-20 09:55:00,28.9,22.6,30.27,ESE,120,0.0,0.0,77,0.00,,,0.00,WUHU216WMR968SP,2013-01-20 17:55:00,
2013-01-20 10:00:00,28.9,22.6,30.27,ESE,120,0.0,0.0,77,0.00,,,0.00,WUHU216WMR968SP,2013-01-20 18:00:00,
2013-01-20 10:05:00,28.9,22.6,30.27,ESE,120,0.0,0.0,77,0.00,,,0.00,WUHU216WMR968SP,2013-01-20 18:05:00,
2013-01-20 10:10:00,28.9,22.6,30.27,SW,224,2.7,3.1,77,0.00,,,0.00,WUHU216WMR968SP,2013-01-20 18:10:00,
2013-01-20 10:15:00,28.9,22.6,30.27,SW,224,0.0,3.1,77,0.00,,,0.00,WUHU216WMR968SP,2013-01-20 18:15:00,
2013-01-20 10:20:00,28.6,22.3,30.27,SW,224,0.0,3.1,77,0.00,,,0.00,WUHU216WMR968SP,2013-01-20 18:20:00,
2013-01-20 10:25:00,28.9,22.6,30.27,SW,224,0.0,2.7,77,0.00,,,0.00,WUHU216WMR968SP,2013-01-20 18:25:00,
2013-01-20 10:30:00,28.8,22.5,30.27,SW,219,0.0,3.1,77,0.00,,,0.00,WUHU216WMR968SP,2013-01-20 18:30:00,
2013-01-20 10:35:00,28.8,22.5,30.27,SW,220,0.0,3.1,77,0.00,,,0.00,WUHU216WMR968SP,2013-01-20 18:35:00,
2013-01-20 10:40:00,28.8,22.5,30.27,SW,219,0.0,3.1,77,0.00,,,0.00,WUHU216WMR968SP,2013-01-20 18:40:00,
2013-01-20 10:45:00,28.9,22.6,30.27,SW,219,0.0,3.6,77,0.00,,,0.00,WUHU216WMR968SP,2013-01-20 18:45:00,
2013-01-20 10:50:00,29.1,22.8,30.27,SSW,208,0.0,3.6,77,0.00,,,0.00,WUHU216WMR968SP,2013-01-20 18:50:00,
2013-01-20 10:55:00,29.1,22.8,30.27,SSW,208,0.0,0.0,77,0.00,,,0.00,WUHU216WMR968SP,2013-01-20 18:55:00,
2013-01-20 11:00:00,29.5,23.2,30.27,SSW,210,2.2,4.0,77,0.00,,,0.00,WUHU216WMR968SP,2013-01-20 19:00:00,
2013-01-20 11:05:00,29.5,23.2,30.27,SSW,210,0.0,4.0,77,0.00,,,0.00,WUHU216WMR968SP,2013-01-20 19:05:00,
2013-01-20 11:10:00,29.5,23.2,30.27,SW,236,0.0,4.0,77,0.00,,,0.00,WUHU216WMR968SP,2013-01-20 19:10:00,
2013-01-20 11:15:00,29.7,23.4,30.27,NW,305,0.0,3.1,77,0.00,,,0.00,WUHU216WMR968SP,2013-01-20 19:15:00,
2013-01-20 11:20:00,29.7,23.4,30.27,West,262,0.0,3.1,77,0.00,,,0.00,WUHU216WMR968SP,2013-01-20 19:20:00,
2013-01-20 11:25:00,29.7,23.4,30.27,West,262,0.0,3.1,77,0.00,,,0.00,WUHU216WMR968SP,2013-01-20 19:25:00,
2013-01-20 11:30:00,29.7,23.4,30.27,West,279,2.7,3.6,77,0.00,,,0.00,WUHU216WMR968SP,2013-01-20 19:30:00,
2013-01-20 11:35:00,29.5,23.2,30.27,WSW,249,0.0,4.0,77,0.00,,,0.00,WUHU216WMR968SP,2013-01-20 19:35:00,
2013-01-20 11:40:00,29.5,23.2,30.27,WNW,286,0.0,4.0,77,0.00,,,0.00,WUHU216WMR968SP,2013-01-20 19:40:00,
2013-01-20 11:45:00,29.7,23.4,30.27,SW,219,0.0,3.1,77,0.00,,,0.00,WUHU216WMR968SP,2013-01-20 19:45:00,
2013-01-20 11:50:00,29.7,23.4,30.27,SSW,194,0.0,3.1,77,0.00,,,0.00,WUHU216WMR968SP,2013-01-20 19:50:00,
2013-01-20 11:55:00,30.0,23.7,30.27,SSW,196,0.0,0.0,77,0.00,,,0.00,WUHU216WMR968SP,2013-01-20 19:55:00,
2013-01-20 12:00:00,30.0,23.7,30.27,SSW,197,0.0,3.1,77,0.00,,,0.00,WUHU216WMR968SP,2013-01-20 20:00:00,
2013-01-20 12:05:00,30.2,24.2,30.27,WSW,249,0.0,3.6,78,0.00,,,0.00,WUHU216WMR968SP,2013-01-20 20:05:00,
2013-01-20 12:10:00,30.2,24.2,30.27,WSW,240,0.0,3.6,78,0.00,,,0.00,WUHU216WMR968SP,2013-01-20 20:10:00,
2013-01-20 12:15:00,30.2,24.2,30.24,WNW,295,0.0,2.7,78,0.00,,,0.00,WUHU216WMR968SP,2013-01-20 20:15:00,
2013-01-20 12:20:00,30.2,24.2,30.24,WSW,244,0.0,3.6,78,0.00,,,0.00,WUHU216WMR968SP,2013-01-20 20:20:00,
2013-01-20 12:25:00,30.2,24.2,30.24,WSW,244,0.0,3.6,78,0.00,,,0.00,WUHU216WMR968SP,2013-01-20 20:25:00,
2013-01-20 12:30:00,30.2,24.2,30.24,WNW,298,0.0,3.6,78,0.00,,,0.00,WUHU216WMR968SP,2013-01-20 20:30:00,
2013-01-20 12:35:00,30.2,24.2,30.24,WNW,299,0.0,3.6,78,0.00,,,0.00,WUHU216WMR968SP,2013-01-20 20:35:00,
2013-01-20 12:40:00,30.4,24.1,30.24,WNW,301,2.7,3.6,77,0.00,,,0.00,WUHU216WMR968SP,2013-01-20 20:40:00,
2013-01-20 12:45:00,30.6,24.3,30.24,WNW,302,0.0,3.6,77,0.00,,,0.00,WUHU216WMR968SP,2013-01-20 20:45:00,
2013-01-20 12:50:00,30.7,24.4,30.24,SSW,213,2.2,3.1,77,0.00,,,0.00,WUHU216WMR968SP,2013-01-20 20:50:00,
2013-01-20 12:55:00,30.7,24.4,30.24,SSW,195,2.2,3.6,77,0.00,,,0.00,WUHU216WMR968SP,2013-01-20 20:55:00,
2013-01-20 13:00:00,30.9,24.6,30.24,SW,223,0.0,3.6,77,0.00,,,0.00,WUHU216WMR968SP,2013-01-20 21:00:00,
2013-01-20 13:05:00,31.1,24.8,30.24,WNW,301,2.2,3.6,77,0.00,,,0.00,WUHU216WMR968SP,2013-01-20 21:05:00,
2013-01-20 13:10:00,30.7,24.4,30.24,NW,318,2.7,4.0,77,0.00,,,0.00,WUHU216WMR968SP,2013-01-20 21:10:00,
2013-01-20 13:15:00,30.7,24.4,30.24,West,275,2.2,5.4,77,0.00,,,0.00,WUHU216WMR968SP,2013-01-20 21:15:00,
2013-01-20 13:20:00,30.7,24.4,30.24,West,281,2.2,5.4,77,0.00,,,0.00,WUHU216WMR968SP,2013-01-20 21:20:00,
2013-01-20 13:25:00,30.9,24.6,30.24,NW,316,0.0,4.0,77,0.00,,,0.00,WUHU216WMR968SP,2013-01-20 21:25:00,
2013-01-20 13:30:00,30.9,24.6,30.21,NW,311,0.0,4.0,77,0.00,,,0.00,WUHU216WMR968SP,2013-01-20 21:30:00,
2013-01-20 13:35:00,31.1,24.8,30.21,NW,311,0.0,4.0,77,0.00,,,0.00,WUHU216WMR968SP,2013-01-20 21:35:00,
2013-01-20 13:40:00,31.1,24.8,30.21,West,275,2.2,3.1,77,0.00,,,0.00,WUHU216WMR968SP,2013-01-20 21:40:00,
2013-01-20 13:45:00,31.6,25.2,30.21,West,269,0.0,3.1,77,0.00,,,0.00,WUHU216WMR968SP,2013-01-20 21:45:00,
2013-01-20 13:50:00,31.5,25.1,30.21,WSW,250,3.1,3.6,77,0.00,,,0.00,WUHU216WMR968SP,2013-01-20 21:50:00,
2013-01-20 13:55:00,31.6,25.5,30.21,WSW,250,0.0,3.6,78,0.00,,,0.00,WUHU216WMR968SP,2013-01-20 21:55:00,
2013-01-20 14:00:00,31.6,25.5,30.21,West,272,3.1,4.0,78,0.00,,,0.00,WUHU216WMR968SP,2013-01-20 22:00:00,
2013-01-20 14:05:00,31.6,25.5,30.21,West,273,0.0,4.0,78,0.00,,,0.00,WUHU216WMR968SP,2013-01-20 22:05:00,
2013-01-20 14:10:00,31.8,25.7,30.21,SW,228,2.2,3.6,78,0.00,,,0.00,WUHU216WMR968SP,2013-01-20 22:10:00,
2013-01-20 14:15:00,31.8,25.7,30.21,WSW,246,2.2,3.6,78,0.00,,,0.00,WUHU216WMR968SP,2013-01-20 22:15:00,
2013-01-20 14:20:00,31.6,25.5,30.21,WSW,246,0.0,3.1,78,0.00,,,0.00,WUHU216WMR968SP,2013-01-20 22:20:00,
2013-01-20 14:25:00,31.8,25.7,30.21,WSW,245,0.0,3.1,78,0.00,,,0.00,WUHU216WMR968SP,2013-01-20 22:25:00,
2013-01-20 14:30:00,31.8,25.7,30.21,WSW,246,0.0,3.1,78,0.00,,,0.00,WUHU216WMR968SP,2013-01-20 22:30:00,
2013-01-20 14:35:00,31.8,25.7,30.21,WSW,246,0.0,3.1,78,0.00,,,0.00,WUHU216WMR968SP,2013-01-20 22:35:00,
2013-01-20 14:40:00,32.0,25.9,30.21,West,275,2.2,3.6,78,0.00,,,0.00,WUHU216WMR968SP,2013-01-20 22:40:00,
2013-01-20 14:45:00,32.2,26.1,30.21,SW,226,2.7,3.6,78,0.00,,,0.00,WUHU216WMR968SP,2013-01-20 22:45:00,
2013-01-20 14:50:00,32.0,25.9,30.21,WNW,294,0.0,3.1,78,0.00,,,0.00,WUHU216WMR968SP,2013-01-20 22:50:00,
2013-01-20 14:55:00,32.0,25.9,30.21,WNW,301,0.0,2.7,78,0.00,,,0.00,WUHU216WMR968SP,2013-01-20 22:55:00,
2013-01-20 15:00:00,32.0,25.9,30.21,NW,318,0.0,3.1,78,0.00,,,0.00,WUHU216WMR968SP,2013-01-20 23:00:00,
2013-01-20 15:05:00,31.8,25.7,30.21,NW,306,2.2,4.0,78,0.00,,,0.00,WUHU216WMR968SP,2013-01-20 23:05:00,
2013-01-20 15:10:00,31.6,25.5,30.21,WNW,298,0.0,4.0,78,0.00,,,0.00,WUHU216WMR968SP,2013-01-20 23:10:00,
2013-01-20 15:15:00,31.6,25.5,30.21,WNW,299,0.0,4.0,78,0.00,,,0.00,WUHU216WMR968SP,2013-01-20 23:15:00,
2013-01-20 15:20:00,31.8,25.7,30.21,NW,312,0.0,3.6,78,0.00,,,0.00,WUHU216WMR968SP,2013-01-20 23:20:00,
2013-01-20 15:25:00,31.6,25.5,30.21,WNW,301,0.0,4.0,78,0.00,,,0.00,WUHU216WMR968SP,2013-01-20 23:25:00,
2013-01-20 15:30:00,31.6,25.5,30.21,NW,307,3.1,4.0,78,0.00,,,0.00,WUHU216WMR968SP,2013-01-20 23:30:00,
2013-01-20 15:35:00,31.6,25.5,30.21,NW,307,0.0,3.6,78,0.00,,,0.00,WUHU216WMR968SP,2013-01-20 23:35:00,
2013-01-20 15:40:00,31.6,25.5,30.21,NW,306,0.0,3.6,78,0.00,,,0.00,WUHU216WMR968SP,2013-01-20 23:40:00,
2013-01-20 15:45:00,31.6,25.5,30.21,WNW,284,2.2,3.6,78,0.00,,,0.00,WUHU216WMR968SP,2013-01-20 23:45:00,
2013-01-20 15:50:00,31.6,25.5,30.21,WNW,284,0.0,3.6,78,0.00,,,0.00,WUHU216WMR968SP,2013-01-20 23:50:00,
2013-01-20 15:55:00,31.5,25.5,30.21,WNW,284,0.0,3.6,78,0.00,,,0.00,WUHU216WMR968SP,2013-01-20 23:55:00,
2013-01-20 16:00:00,31.6,25.5,30.21,NW,307,0.0,3.6,78,0.00,,,0.00,WUHU216WMR968SP,2013-01-21 00:00:00,
2013-01-20 16:05:00,31.6,25.5,30.21,NW,306,3.1,4.0,78,0.00,,,0.00,WUHU216WMR968SP,2013-01-21 00:05:00,
2013-01-20 16:10:00,31.6,25.5,30.21,NW,307,0.0,4.0,78,0.00,,,0.00,WUHU216WMR968SP,2013-01-21 00:10:00,
2013-01-20 16:15:00,31.5,25.5,30.21,West,265,2.7,4.0,78,0.00,,,0.00,WUHU216WMR968SP,2013-01-21 00:15:00,
2013-01-20 16:20:00,31.3,25.3,30.21,WNW,297,2.7,4.0,78,0.00,,,0.00,WUHU216WMR968SP,2013-01-21 00:20:00,
2013-01-20 16:25:00,31.5,25.5,30.21,NW,308,0.0,3.6,78,0.00,,,0.00,WUHU216WMR968SP,2013-01-21 00:25:00,
2013-01-20 16:30:00,31.5,25.5,30.21,NW,307,0.0,3.1,78,0.00,,,0.00,WUHU216WMR968SP,2013-01-21 00:30:00,
2013-01-20 16:35:00,31.5,25.5,30.21,WNW,303,0.0,3.6,78,0.00,,,0.00,WUHU216WMR968SP,2013-01-21 00:35:00,
2013-01-20 16:40:00,31.3,25.3,30.21,WNW,303,0.0,3.6,78,0.00,,,0.00,WUHU216WMR968SP,2013-01-21 00:40:00,
2013-01-20 16:45:00,31.3,25.3,30.18,WNW,303,0.0,3.1,78,0.00,,,0.00,WUHU216WMR968SP,2013-01-21 00:45:00,
2013-01-20 16:50:00,31.1,25.1,30.18,WNW,303,0.0,4.0,78,0.00,,,0.00,WUHU216WMR968SP,2013-01-21 00:50:00,
2013-01-20 16:55:00,31.1,25.1,30.18,NW,304,0.0,4.0,78,0.00,,,0.00,WUHU216WMR968SP,2013-01-21 00:55:00,
2013-01-20 17:00:00,31.1,25.1,30.18,NW,304,0.0,2.7,78,0.00,,,0.00,WUHU216WMR968SP,2013-01-21 01:00:00,
2013-01-20 17:05:00,31.1,25.1,30.18,NW,304,0.0,0.0,78,0.00,,,0.00,WUHU216WMR968SP,2013-01-21 01:05:00,
2013-01-20 17:10:00,31.1,24.8,30.18,WNW,303,0.0,0.0,77,0.00,,,0.00,WUHU216WMR968SP,2013-01-21 01:10:00,
2013-01-20 17:15:00,31.1,24.8,30.18,NW,304,0.0,0.0,77,0.00,,,0.00,WUHU216WMR968SP,2013-01-21 01:15:00,
2013-01-20 17:21:00,30.9,24.6,30.18,NW,304,0.0,0.0,77,0.00,,,0.00,WUHU216WMR968SP,2013-01-21 01:21:00,
2013-01-20 17:26:00,30.9,24.6,30.18,NW,304,0.0,0.0,77,0.00,,,0.00,WUHU216WMR968SP,2013-01-21 01:26:00,
2013-01-20 17:31:00,30.7,24.4,30.18,NW,304,0.0,0.0,77,0.00,,,0.00,WUHU216WMR968SP,2013-01-21 01:31:00,
2013-01-20 17:36:00,30.7,24.4,30.18,NW,304,0.0,0.0,77,0.00,,,0.00,WUHU216WMR968SP,2013-01-21 01:36:00,
2013-01-20 17:41:00,30.7,24.4,30.18,NW,304,0.0,0.0,77,0.00,,,0.00,WUHU216WMR968SP,2013-01-21 01:41:00,
2013-01-20 17:45:00,30.6,24.3,30.18,NW,304,0.0,0.0,77,0.00,,,0.00,WUHU216WMR968SP,2013-01-21 01:45:00,
2013-01-20 17:51:00,30.6,24.3,30.18,NW,304,0.0,0.0,77,0.00,,,0.00,WUHU216WMR968SP,2013-01-21 01:51:00,
2013-01-20 17:56:00,30.6,24.3,30.18,NW,304,0.0,0.0,77,0.00,,,0.00,WUHU216WMR968SP,2013-01-21 01:56:00,
2013-01-20 18:01:00,30.4,24.1,30.18,NW,304,0.0,0.0,77,0.00,,,0.00,WUHU216WMR968SP,2013-01-21 02:01:00,
2013-01-20 18:06:00,30.4,24.1,30.18,NW,304,0.0,0.0,77,0.00,,,0.00,WUHU216WMR968SP,2013-01-21 02:06:00,
2013-01-20 18:11:00,30.4,24.1,30.18,NW,304,0.0,0.0,77,0.00,,,0.00,WUHU216WMR968SP,2013-01-21 02:11:00,
2013-01-20 18:16:00,30.4,24.1,30.18,NW,304,0.0,0.0,77,0.00,,,0.00,WUHU216WMR968SP,2013-01-21 02:16:00,
2013-01-20 18:21:00,30.6,24.3,30.18,NW,304,0.0,0.0,77,0.00,,,0.00,WUHU216WMR968SP,2013-01-21 02:21:00,
2013-01-20 18:26:00,30.4,24.1,30.18,NW,304,0.0,0.0,77,0.00,,,0.00,WUHU216WMR968SP,2013-01-21 02:26:00,
2013-01-20 18:31:00,30.4,24.1,30.18,NW,304,0.0,0.0,77,0.00,,,0.00,WUHU216WMR968SP,2013-01-21 02:31:00,
2013-01-20 18:36:00,30.4,24.1,30.18,WNW,303,0.0,0.0,77,0.00,,,0.00,WUHU216WMR968SP,2013-01-21 02:36:00,
2013-01-20 18:41:00,30.2,24.2,30.18,NW,304,0.0,0.0,78,0.00,,,0.00,WUHU216WMR968SP,2013-01-21 02:41:00,
2013-01-20 18:46:00,30.2,24.2,30.18,NW,304,0.0,0.0,78,0.00,,,0.00,WUHU216WMR968SP,2013-01-21 02:46:00,
2013-01-20 18:51:00,30.2,24.2,30.18,NW,304,0.0,0.0,78,0.00,,,0.00,WUHU216WMR968SP,2013-01-21 02:51:00,
2013-01-20 18:56:00,30.2,24.2,30.18,NW,304,0.0,0.0,78,0.00,,,0.00,WUHU216WMR968SP,2013-01-21 02:56:00,
2013-01-20 19:01:00,30.2,24.2,30.18,NW,304,0.0,0.0,78,0.00,,,0.00,WUHU216WMR968SP,2013-01-21 03:01:00,
2013-01-20 19:06:00,30.2,24.2,30.18,WNW,303,0.0,0.0,78,0.00,,,0.00,WUHU216WMR968SP,2013-01-21 03:06:00,
2013-01-20 19:11:00,30.2,24.2,30.18,WNW,302,0.0,0.0,78,0.00,,,0.00,WUHU216WMR968SP,2013-01-21 03:11:00,
2013-01-20 19:16:00,30.2,24.2,30.18,WNW,302,0.0,0.0,78,0.00,,,0.00,WUHU216WMR968SP,2013-01-21 03:16:00,
2013-01-20 19:21:00,30.2,24.2,30.18,WNW,302,0.0,0.0,78,0.00,,,0.00,WUHU216WMR968SP,2013-01-21 03:21:00,
2013-01-20 19:26:00,30.2,24.2,30.18,WNW,302,0.0,0.0,78,0.00,,,0.00,WUHU216WMR968SP,2013-01-21 03:26:00,
2013-01-20 19:31:00,30.2,24.2,30.21,WNW,302,0.0,0.0,78,0.00,,,0.00,WUHU216WMR968SP,2013-01-21 03:31:00,
2013-01-20 19:36:00,30.2,24.2,30.21,WNW,302,0.0,0.0,78,0.00,,,0.00,WUHU216WMR968SP,2013-01-21 03:36:00,
2013-01-20 19:41:00,30.2,24.2,30.21,SW,224,2.2,3.1,78,0.00,,,0.00,WUHU216WMR968SP,2013-01-21 03:41:00,
2013-01-20 19:46:00,30.2,24.2,30.21,SW,224,0.0,3.1,78,0.00,,,0.00,WUHU216WMR968SP,2013-01-21 03:46:00,
2013-01-20 19:51:00,30.0,24.0,30.21,SW,224,0.0,3.1,78,0.00,,,0.00,WUHU216WMR968SP,2013-01-21 03:51:00,
2013-01-20 19:56:00,30.0,24.0,30.21,SW,224,0.0,0.0,78,0.00,,,0.00,WUHU216WMR968SP,2013-01-21 03:56:00,
2013-01-20 20:01:00,30.0,24.0,30.21,SW,224,0.0,0.0,78,0.00,,,0.00,WUHU216WMR968SP,2013-01-21 04:01:00,
2013-01-20 20:06:00,29.8,23.8,30.21,SSE,162,3.1,3.6,78,0.00,,,0.00,WUHU216WMR968SP,2013-01-21 04:06:00,
2013-01-20 20:11:00,29.8,23.8,30.21,SSE,147,3.1,3.6,78,0.00,,,0.00,WUHU216WMR968SP,2013-01-21 04:11:00,
2013-01-20 20:17:00,29.7,23.7,30.21,SSE,147,0.0,3.6,78,0.00,,,0.00,WUHU216WMR968SP,2013-01-21 04:17:00,
2013-01-20 20:22:00,29.7,23.7,30.21,SSE,147,0.0,2.7,78,0.00,,,0.00,WUHU216WMR968SP,2013-01-21 04:22:00,
2013-01-20 20:28:00,29.7,23.7,30.21,SSE,147,0.0,0.0,78,0.00,,,0.00,WUHU216WMR968SP,2013-01-21 04:28:00,
2013-01-20 20:33:00,29.7,23.7,30.21,SSE,147,0.0,0.0,78,0.00,,,0.00,WUHU216WMR968SP,2013-01-21 04:33:00,
2013-01-20 20:38:00,29.8,23.8,30.21,SSE,147,0.0,0.0,78,0.00,,,0.00,WUHU216WMR968SP,2013-01-21 04:38:00,
2013-01-20 20:43:00,30.0,24.0,30.21,SE,139,2.2,3.1,78,0.00,,,0.00,WUHU216WMR968SP,2013-01-21 04:43:00,
2013-01-20 20:48:00,30.0,24.0,30.21,SE,139,2.2,3.6,78,0.00,,,0.00,WUHU216WMR968SP,2013-01-21 04:48:00,
2013-01-20 20:53:00,29.8,23.8,30.21,SE,125,2.2,3.6,78,0.00,,,0.00,WUHU216WMR968SP,2013-01-21 04:53:00,
2013-01-20 20:58:00,29.7,23.7,30.21,SE,125,0.0,3.6,78,0.00,,,0.00,WUHU216WMR968SP,2013-01-21 04:58:00,
2013-01-20 21:01:00,29.7,23.7,30.21,East,99,0.0,4.9,78,0.00,,,0.00,WUHU216WMR968SP,2013-01-21 05:01:00,
2013-01-20 21:03:00,29.7,23.7,30.21,East,99,2.2,4.9,78,0.00,,,0.00,WUHU216WMR968SP,2013-01-21 05:03:00,
2013-01-20 21:08:00,29.8,23.5,30.21,ENE,77,0.0,4.9,77,0.00,,,0.00,WUHU216WMR968SP,2013-01-21 05:08:00,
2013-01-20 21:13:00,29.8,23.5,30.21,ENE,77,0.0,3.1,77,0.00,,,0.00,WUHU216WMR968SP,2013-01-21 05:13:00,
2013-01-20 21:18:00,29.7,23.4,30.21,East,98,0.0,3.6,77,0.00,,,0.00,WUHU216WMR968SP,2013-01-21 05:18:00,
2013-01-20 21:23:00,29.8,23.5,30.21,East,98,0.0,3.6,77,0.00,,,0.00,WUHU216WMR968SP,2013-01-21 05:23:00,
2013-01-20 21:28:00,29.7,23.4,30.21,ESE,103,0.0,0.0,77,0.00,,,0.00,WUHU216WMR968SP,2013-01-21 05:28:00,
2013-01-20 21:33:00,29.7,23.4,30.21,ESE,103,0.0,0.0,77,0.00,,,0.00,WUHU216WMR968SP,2013-01-21 05:33:00,
2013-01-20 21:38:00,29.7,23.4,30.21,ESE,103,0.0,0.0,77,0.00,,,0.00,WUHU216WMR968SP,2013-01-21 05:38:00,
2013-01-20 21:43:00,29.7,23.4,30.21,ESE,103,0.0,0.0,77,0.00,,,0.00,WUHU216WMR968SP,2013-01-21 05:43:00,
2013-01-20 21:48:00,29.7,23.4,30.21,ESE,103,0.0,0.0,77,0.00,,,0.00,WUHU216WMR968SP,2013-01-21 05:48:00,
2013-01-20 21:53:00,29.7,23.4,30.21,ESE,103,0.0,0.0,77,0.00,,,0.00,WUHU216WMR968SP,2013-01-21 05:53:00,
2013-01-20 21:58:00,29.7,23.4,30.21,ESE,103,0.0,0.0,77,0.00,,,0.00,WUHU216WMR968SP,2013-01-21 05:58:00,
2013-01-20 22:03:00,29.7,23.4,30.21,ESE,103,0.0,0.0,77,0.00,,,0.00,WUHU216WMR968SP,2013-01-21 06:03:00,
2013-01-20 22:08:00,29.7,23.4,30.21,ESE,103,0.0,0.0,77,0.00,,,0.00,WUHU216WMR968SP,2013-01-21 06:08:00,
2013-01-20 22:13:00,29.5,23.2,30.21,ESE,104,0.0,0.0,77,0.00,,,0.00,WUHU216WMR968SP,2013-01-21 06:13:00,
2013-01-20 22:18:00,29.5,23.2,30.18,ESE,104,0.0,0.0,77,0.00,,,0.00,WUHU216WMR968SP,2013-01-21 06:18:00,
2013-01-20 22:23:00,29.5,23.2,30.18,ESE,104,0.0,0.0,77,0.00,,,0.00,WUHU216WMR968SP,2013-01-21 06:23:00,
2013-01-20 22:28:00,29.5,23.2,30.18,ESE,110,0.0,0.0,77,0.00,,,0.00,WUHU216WMR968SP,2013-01-21 06:28:00,
2013-01-20 22:33:00,29.3,23.0,30.21,SE,130,0.0,0.0,77,0.00,,,0.00,WUHU216WMR968SP,2013-01-21 06:33:00,
2013-01-20 22:38:00,29.3,23.0,30.21,South,169,0.0,0.0,77,0.00,,,0.00,WUHU216WMR968SP,2013-01-21 06:38:00,
2013-01-20 22:43:00,28.9,22.6,30.21,South,169,2.7,3.6,77,0.00,,,0.00,WUHU216WMR968SP,2013-01-21 06:43:00,
2013-01-20 22:48:00,28.8,22.5,30.21,South,169,0.0,3.6,77,0.00,,,0.00,WUHU216WMR968SP,2013-01-21 06:48:00,
2013-01-20 22:53:00,28.8,22.5,30.21,SSE,152,0.0,3.1,77,0.00,,,0.00,WUHU216WMR968SP,2013-01-21 06:53:00,
2013-01-20 22:58:00,28.6,22.3,30.21,SSE,153,0.0,3.1,77,0.00,,,0.00,WUHU216WMR968SP,2013-01-21 06:58:00,
2013-01-20 23:03:00,28.6,22.3,30.21,SSE,153,2.7,3.1,77,0.00,,,0.00,WUHU216WMR968SP,2013-01-21 07:03:00,
2013-01-20 23:09:00,28.6,22.3,30.21,SE,140,3.1,4.0,77,0.00,,,0.00,WUHU216WMR968SP,2013-01-21 07:09:00,
2013-01-20 23:14:00,28.4,22.4,30.21,SE,140,0.0,4.0,78,0.00,,,0.00,WUHU216WMR968SP,2013-01-21 07:14:00,
2013-01-20 23:19:00,28.2,22.2,30.21,SE,140,0.0,3.1,78,0.00,,,0.00,WUHU216WMR968SP,2013-01-21 07:19:00,
2013-01-20 23:24:00,28.2,22.2,30.21,SE,140,0.0,0.0,78,0.00,,,0.00,WUHU216WMR968SP,2013-01-21 07:24:00,
2013-01-20 23:29:00,28.2,22.2,30.21,South,185,0.0,0.0,78,0.00,,,0.00,WUHU216WMR968SP,2013-01-21 07:29:00,
2013-01-20 23:34:00,28.2,22.2,30.21,South,185,0.0,0.0,78,0.00,,,0.00,WUHU216WMR968SP,2013-01-21 07:34:00,
2013-01-20 23:39:00,28.2,22.2,30.21,South,185,0.0,0.0,78,0.00,,,0.00,WUHU216WMR968SP,2013-01-21 07:39:00,
2013-01-20 23:44:00,28.2,22.2,30.21,South,185,0.0,0.0,78,0.00,,,0.00,WUHU216WMR968SP,2013-01-21 07:44:00,
2013-01-20 23:49:00,28.2,22.2,30.21,South,185,0.0,0.0,78,0.00,,,0.00,WUHU216WMR968SP,2013-01-21 07:49:00,
2013-01-20 23:54:00,28.2,22.2,30.21,South,185,0.0,0.0,78,0.00,,,0.00,WUHU216WMR968SP,2013-01-21 07:54:00,
2013-01-20 23:59:00,28.2,22.2,30.21,South,185,0.0,0.0,78,0.00,,,0.00,WUHU216WMR968SP,2013-01-21 07:59:00,